Detalii statie FLORA ARNO ARAD [00001998]

Toti senzorii

Date Temperatura solului [C]Precipitatii [mm]Voltaj baterie [mV]Leaf Wetness [Min]HC Air temperature [C]HC Relative humidity [%]Punctul de roua [C]
medieminmaxsumaultimatimpmedieminmaxmediemediemin
2019-04-19 19:00:00 13.5 13.5 13.7 0 7254 18.2 16.8 19.23 41.81 4.8 4.4
2019-04-19 20:00:00 13.3 13.2 13.6 0 6972 14.82 13.65 16.48 47.35 3.5 3.1
2019-04-19 21:00:00 13.1 13 13.4 0 6952 13.04 12.17 14.18 50.99 2.9 2.8
2019-04-19 22:00:00 12.9 12.8 13.1 0 6952 12.87 11.99 13.48 49.72 2.4 2
2019-04-19 23:00:00 12.7 12.5 13 0 6952 10.84 8.82 12.59 55.63 2 1.9
2019-04-20 00:00:00 12.4 12.4 12.6 0 6932 8.59 8.17 9.12 64.4 2.1 1.8
2019-04-20 01:00:00 12.3 12.2 12.5 0 6922 8.22 7.79 8.72 66.43 2.2 1.9
2019-04-20 02:00:00 12 12 12.2 0 6922 6.88 6.07 7.46 72.24 2 1.7
2019-04-20 03:00:00 11.8 11.7 12 0 6922 5.4 4.88 5.91 78.24 1.8 1.6
2019-04-20 04:00:00 11.6 11.6 11.8 0 6922 5.67 5.24 6.13 75.84 1.6 1.4
2019-04-20 05:00:00 11.4 11.4 11.6 0 6922 4.96 4.58 5.53 81.56 1.9 1.7
2019-04-20 06:00:00 11.3 11.2 11.4 0 6914 3.71 3.31 4.38 89.83 2 1.5
2019-04-20 07:00:00 11.1 11 11.3 0 6942 4.39 3.09 6.79 96.25 3.7 2.9
2019-04-20 08:00:00 10.9 10.7 11 0 6982 10.65 7.36 12.36 78.03 6.8 5
2019-04-20 09:00:00 10.8 10.7 10.9 0 7020 14.11 12.78 15.06 66.76 7.8 6.7
2019-04-20 10:00:00 11 10.9 11.3 0 7382 16.16 15.26 16.89 57.89 7.6 6.9
2019-04-20 11:00:00 11.3 11.1 11.6 0 7372 16.93 15.93 18.28 49.09 5.9 4.9
2019-04-20 12:00:00 12 11.7 12.4 0 7382 17.71 16.67 18.79 47.85 6.2 4.5
2019-04-20 13:00:00 12.6 12.3 12.9 0 7372 18.4 17.7 19.69 45.16 6.1 4.4
2019-04-20 14:00:00 13.2 12.9 13.5 0 7372 18.99 17.8 20.32 44.77 6.5 4.9
2019-04-20 15:00:00 13.8 13.5 14.1 0 7372 19.06 18.47 19.7 43.31 6 5.2
2019-04-20 16:00:00 14.2 13.9 14.5 0 7382 19.69 18.62 20.49 42.04 6.2 5.2
2019-04-20 17:00:00 14.5 14.4 14.8 0 7372 18.96 18.74 19.35 42.09 5.5 5.1
2019-04-20 18:00:00 14.5 14.4 14.7 0 7196 18.77 18.07 19.3 42.37 5.5 4.8
2019-04-20 19:00:00 14.3 14.3 14.5 0 7226 17.05 15.6 18.14 48.42 5.8 4.7
2019-04-20 20:00:00 14.1 14 14.4 0 6962 14.19 13.67 15.34 55.12 5.1 4.5
2019-04-20 21:00:00 13.8 13.6 14.1 0 6952 12.85 11.41 13.65 54.32 3.6 3
2019-04-20 22:00:00 13.5 13.3 13.7 0 6952 11.77 10.92 12.52 54.08 2.6 2.5
2019-04-20 23:00:00 13.2 13.1 13.5 0 6942 10.54 9.6 11.55 57.85 2.4 1.9
2019-04-21 00:00:00 12.9 12.9 13.1 0 6932 8.26 7.33 9.41 65.06 1.9 1.1
2019-04-21 01:00:00 12.7 12.6 12.9 0 6914 7.65 6.57 8.58 65 1.3 1.1
2019-04-21 02:00:00 12.5 12.3 12.7 0 6922 7.06 6.74 7.44 66.33 1 0.7
2019-04-21 03:00:00 12.2 12.1 12.5 0 6914 6.19 5.49 6.67 72.4 1.4 1.1
2019-04-21 04:00:00 12 11.9 12.1 0 6922 5.47 4.62 6.1 76.23 1.4 1.3
2019-04-21 05:00:00 11.8 11.7 12 0 6914 4.86 4.3 5.31 82.78 2 1.8
2019-04-21 06:00:00 11.6 11.4 11.8 0 6904 4.69 4.03 5.16 88.5 2.8 2.2
2019-04-21 07:00:00 11.4 11.3 11.5 0 6932 5.61 4.85 6.4 90.51 4 3.6
2019-04-21 08:00:00 11.2 11.2 11.4 0 7010 8.38 6.81 9.55 83.33 5.6 5
2019-04-21 09:00:00 11.1 11.1 11.3 0 7118 10.98 9.68 12.69 75.24 6.5 6.1
2019-04-21 10:00:00 11.1 11.1 11.3 0 7372 14.37 12.8 15.56 61.28 6.8 5.8
2019-04-21 11:00:00 11.3 11.1 11.5 0 7372 16.58 16.2 17.1 61.61 9 7.9
2019-04-21 12:00:00 11.7 11.5 12.1 0 7372 18.68 16.88 20.47 59.42 10.4 9.5
2019-04-21 13:00:00 12.3 12.1 12.6 0 7372 20.71 19.9 21.49 45.41 8.2 6.3
2019-04-21 14:00:00 13 12.7 13.5 0 7372 21.44 20.06 22.15 42.24 7.8 6.7
2019-04-21 15:00:00 13.4 13.1 13.7 0 7372 21.07 19.73 22.29 41.38 7.1 5.7
2019-04-21 16:00:00 13.8 13.7 14.1 0 7362 20.82 19.81 22.29 42.94 7.5 6.2
2019-04-21 17:00:00 14 13.9 14.2 0 7206 19.51 19.21 19.74 50.04 8.6 6.7
2019-04-21 18:00:00 14.1 14 14.2 0 7206 19.73 18.81 20.73 48.93 8.5 7.3